Date,TemperatureHighF,TemperatureAvgF,TemperatureLowF,DewpointHighF,DewpointAvgF,DewpointLowF,HumidityHigh,HumidityAvg,HumidityLow,PressureMaxIn,PressureMinIn,WindSpeedMaxMPH,WindSpeedAvgMPH,GustSpeedMaxMPH,PrecipitationSumIn
2013-4-1,44,37,32,33,23,17,86,57,39,30.00,29.89,21,1,21,0.00
2013-4-2,40,32,27,24,20,14,81,61,37,30.19,29.99,21,1,21,0.00
2013-4-3,41,31,22,23,19,10,91,64,33,30.42,30.18,21,1,21,0.00
2013-4-4,52,34,15,30,17,5,92,56,20,30.41,29.98,19,1,19,0.00
2013-4-5,56,41,27,34,27,20,93,60,32,30.15,29.92,21,1,21,0.00
2013-4-6,58,42,22,26,19,8,93,50,18,30.28,30.06,20,2,20,0.00
2013-4-7,72,60,49,51,38,20,83,45,31,30.06,29.84,22,3,22,0.00
2013-4-8,75,59,42,53,46,40,97,67,34,30.02,29.87,19,1,19,0.00
2013-4-9,80,65,53,57,52,47,87,67,40,30.05,29.86,15,1,15,0.00
2013-4-10,81,70,56,62,56,51,95,62,42,29.94,29.73,30,2,30,0.00
2013-4-11,77,63,49,61,56,48,98,81,53,29.83,29.56,26,1,26,0.00
2013-4-12,69,59,46,59,51,36,94,74,49,29.79,29.47,23,3,23,0.00
2013-4-13,58,46,37,38,35,32,90,65,43,29.98,29.78,19,2,19,0.00
2013-4-14,63,48,32,44,35,28,93,62,34,30.15,29.98,10,1,10,0.00
2013-4-15,65,60,53,51,46,39,76,59,47,30.10,29.98,29,4,29,0.00
2013-4-16,80,66,56,60,55,49,95,70,45,30.17,29.98,23,2,23,0.00
2013-4-17,67,59,55,58,56,54,98,91,73,30.19,30.08,14,0,14,0.00
2013-4-18,83,70,58,64,59,54,89,69,47,30.09,29.76,28,5,28,0.00
2013-4-19,76,61,44,60,52,34,90,73,54,29.80,29.43,30,3,30,0.00
2013-4-20,44,44,43,35,34,32,70,68,64,29.84,29.79,10,2,10,0.00
2013-4-21,55,50,44,28,24,18,49,36,24,30.49,30.45,11,4,18,0.00
2013-4-22,60,50,42,33,27,21,64,43,23,30.46,30.27,16,5,29,0.00
2013-4-23,71,50,34,42,35,31,92,62,26,30.27,29.97,23,1,23,0.00
2013-4-24,75,55,40,58,46,35,93,75,46,30.11,29.67,22,2,22,0.00
2013-4-25,58,46,35,39,33,27,90,63,32,30.35,30.11,18,1,18,0.00
2013-4-26,60,47,34,40,34,25,94,65,29,30.45,30.34,11,1,11,0.00
2013-4-27,72,54,30,43,35,28,95,56,26,30.40,30.16,20,2,20,0.00
2013-4-28,60,53,42,51,46,40,92,80,48,30.17,29.95,28,3,28,0.00
2013-4-29,65,58,52,54,51,47,95,80,65,30.00,29.93,23,3,23,0.00
2013-4-30,69,59,53,54,52,49,92,77,57,30.16,30.00,21,3,21,0.00